Time;durP1;ratioP1;P1;durP2;ratioP2;P2;SDS_P1;SDS_P2;PMS_P1;PMS_P2;Temp;Humidity;BMP_temperature;BMP_pressure;BME280_temperature;BME280_humidity;BME280_pressure;Samples;Min_cycle;Max_cycle;Signal;HPM_P1;HPM_P2
2022/04/20 00:01:18;;;;;;;6.00;4.75;;;7.30;99.90;;;;;;5047858;28;20394;-84
2022/04/20 00:03:44;;;;;;;6.20;4.70;;;7.20;99.90;;;;;;5044211;28;20128;-85
2022/04/20 00:06:10;;;;;;;7.32;4.47;;;7.20;99.90;;;;;;5049760;28;20040;-84
2022/04/20 00:08:35;;;;;;;5.18;4.68;;;7.20;99.90;;;;;;5046961;28;20040;-85
2022/04/20 00:11:01;;;;;;;6.40;4.68;;;7.20;99.90;;;;;;5049227;28;20660;-84
2022/04/20 00:13:27;;;;;;;5.82;5.22;;;7.20;99.90;;;;;;5041248;28;20490;-84
2022/04/20 00:15:52;;;;;;;9.45;4.38;;;7.10;99.90;;;;;;5049805;28;20130;-84
2022/04/20 00:18:18;;;;;;;8.18;5.28;;;7.10;99.90;;;;;;5037023;28;20068;-84
2022/04/20 00:20:43;;;;;;;10.23;5.15;;;7.10;99.90;;;;;;5028444;28;20056;-84
2022/04/20 00:23:09;;;;;;;6.70;5.00;;;7.10;99.90;;;;;;5050851;28;20049;-84
2022/04/20 00:25:35;;;;;;;6.32;5.13;;;7.10;99.90;;;;;;5033645;28;20123;-84
2022/04/20 00:28:00;;;;;;;5.68;4.55;;;7.00;99.90;;;;;;5044661;28;20074;-85
2022/04/20 00:30:26;;;;;;;7.15;5.00;;;7.00;99.90;;;;;;5028254;28;20136;-84
2022/04/20 00:32:52;;;;;;;5.22;4.70;;;6.90;99.90;;;;;;5054683;28;20080;-84
2022/04/20 00:35:17;;;;;;;7.03;4.57;;;6.90;99.90;;;;;;5049372;28;20037;-84
2022/04/20 00:37:43;;;;;;;6.78;5.15;;;7.00;99.90;;;;;;5077066;22;20048;-84
2022/04/20 00:40:10;;;;;;;5.28;4.75;;;7.00;99.90;;;;;;5058361;28;20036;-84
2022/04/20 00:42:39;;;;;;;5.05;4.55;;;6.90;99.90;;;;;;5046705;28;20040;-84
2022/04/20 00:45:10;;;;;;;5.82;4.55;;;6.90;99.90;;;;;;5056869;28;20032;-84
2022/04/20 00:47:42;;;;;;;7.13;5.20;;;6.90;99.90;;;;;;5073710;28;20036;-84
2022/04/20 00:50:09;;;;;;;6.28;4.95;;;6.90;99.90;;;;;;5073403;28;20378;-84
2022/04/20 00:52:35;;;;;;;6.68;5.05;;;6.90;99.90;;;;;;5074089;28;20063;-84
2022/04/20 00:55:01;;;;;;;7.05;4.88;;;6.90;99.90;;;;;;5074092;28;20046;-84
2022/04/20 00:57:27;;;;;;;5.90;5.30;;;6.80;99.90;;;;;;5057276;28;20059;-83
2022/04/20 00:59:55;;;;;;;8.15;5.38;;;6.80;99.90;;;;;;5074438;28;20041;-84
2022/04/20 01:02:21;;;;;;;8.98;5.60;;;6.80;99.90;;;;;;5074026;28;20040;-84
2022/04/20 01:04:47;;;;;;;6.72;4.80;;;6.80;99.90;;;;;;5071632;28;20048;-84
2022/04/20 01:07:15;;;;;;;6.57;4.70;;;6.80;99.90;;;;;;5073558;28;20484;-84
2022/04/20 01:09:42;;;;;;;7.28;4.75;;;6.80;99.90;;;;;;5074149;28;20050;-84
2022/04/20 01:12:08;;;;;;;5.65;5.00;;;6.80;99.90;;;;;;5057113;28;20041;-84
2022/04/20 01:14:37;;;;;;;7.70;4.65;;;6.70;99.90;;;;;;5073439;28;20047;-84
2022/04/20 01:17:04;;;;;;;8.90;4.93;;;6.70;99.90;;;;;;5063908;28;20071;-84
2022/04/20 01:19:34;;;;;;;7.88;4.70;;;6.70;99.90;;;;;;5077025;28;20033;-84
2022/04/20 01:22:01;;;;;;;5.85;5.07;;;6.60;99.90;;;;;;5067205;28;20473;-84
2022/04/20 01:24:27;;;;;;;8.15;4.95;;;6.60;99.90;;;;;;5075092;28;20127;-84
2022/04/20 01:26:52;;;;;;;7.47;5.30;;;6.60;99.90;;;;;;5070868;28;20070;-84
2022/04/20 01:29:19;;;;;;;7.30;4.93;;;6.60;99.90;;;;;;5066165;28;20056;-84
2022/04/20 01:31:44;;;;;;;5.45;4.88;;;6.60;99.90;;;;;;5068726;28;20470;-84
2022/04/20 01:34:10;;;;;;;6.10;4.82;;;6.50;99.90;;;;;;5088221;28;20051;-84
2022/04/20 01:36:36;;;;;;;5.80;4.93;;;6.50;99.90;;;;;;5081116;28;20060;-84
2022/04/20 01:39:02;;;;;;;6.60;4.78;;;6.40;99.90;;;;;;5074178;28;20040;-84
2022/04/20 01:41:28;;;;;;;8.02;4.97;;;6.30;99.90;;;;;;5073750;28;20085;-84
2022/04/20 01:43:53;;;;;;;7.15;5.55;;;6.30;99.90;;;;;;5072978;28;20458;-84
2022/04/20 01:46:19;;;;;;;5.65;5.13;;;6.20;99.90;;;;;;5065832;28;20671;-84
2022/04/20 01:48:44;;;;;;;7.20;5.50;;;6.20;99.90;;;;;;5060416;28;20359;-84
2022/04/20 01:53:54;;;;;;;5.25;4.50;;;6.20;99.90;;;;;;5079892;28;20052;-84
2022/04/20 01:56:19;;;;;;;6.65;4.93;;;6.10;99.90;;;;;;5055627;28;20040;-84
2022/04/20 01:58:45;;;;;;;5.97;5.10;;;6.10;99.90;;;;;;5060706;28;20059;-84
2022/04/20 02:03:54;;;;;;;6.53;5.13;;;6.00;99.90;;;;;;5067620;28;20123;-84
2022/04/20 02:06:20;;;;;;;6.20;4.78;;;6.00;99.90;;;;;;5067667;28;20116;-84
2022/04/20 02:08:45;;;;;;;8.00;4.72;;;6.00;99.90;;;;;;5070979;28;20150;-84
2022/04/20 02:11:11;;;;;;;5.88;4.78;;;6.00;99.90;;;;;;5072793;28;20419;-84
2022/04/20 02:13:36;;;;;;;5.18;4.68;;;5.90;99.90;;;;;;5069728;28;20034;-84
2022/04/20 02:16:02;;;;;;;9.50;5.45;;;5.90;99.90;;;;;;5072956;28;20033;-84
2022/04/20 02:18:28;;;;;;;5.47;4.93;;;5.90;99.90;;;;;;5064235;28;20486;-84
2022/04/20 02:20:53;;;;;;;8.45;5.07;;;6.00;99.90;;;;;;5069292;28;20802;-84
2022/04/20 02:23:19;;;;;;;9.00;5.30;;;6.00;99.90;;;;;;5070581;28;20037;-84
2022/04/20 02:25:44;;;;;;;6.22;5.10;;;5.90;99.90;;;;;;5067463;28;20044;-84
2022/04/20 02:28:10;;;;;;;6.68;5.28;;;5.80;99.90;;;;;;5066957;28;20043;-84
2022/04/20 02:30:35;;;;;;;6.03;5.10;;;5.80;99.90;;;;;;5066352;28;20029;-84
2022/04/20 02:33:01;;;;;;;5.93;5.20;;;5.80;99.90;;;;;;5073279;28;20477;-84
2022/04/20 02:35:27;;;;;;;6.68;5.22;;;5.70;99.90;;;;;;5073234;28;20126;-84
2022/04/20 02:37:53;;;;;;;9.18;4.75;;;5.70;99.90;;;;;;5068991;28;20048;-84
2022/04/20 02:40:19;;;;;;;9.30;4.82;;;5.70;99.90;;;;;;5066834;28;20040;-84
2022/04/20 02:42:45;;;;;;;6.10;4.70;;;5.70;99.90;;;;;;5061550;28;20139;-85
2022/04/20 02:45:11;;;;;;;7.55;5.40;;;5.70;99.90;;;;;;5072291;28;20076;-85
2022/04/20 02:47:37;;;;;;;8.05;5.30;;;5.70;99.90;;;;;;5054084;28;20460;-85
2022/04/20 02:50:03;;;;;;;6.65;5.00;;;5.70;99.90;;;;;;5057124;28;20120;-84
2022/04/20 02:52:28;;;;;;;6.65;4.97;;;5.60;99.90;;;;;;5071391;28;20064;-84
2022/04/20 02:54:54;;;;;;;6.03;4.90;;;5.60;99.90;;;;;;5071857;28;20082;-84
2022/04/20 02:57:19;;;;;;;7.63;4.90;;;5.60;99.90;;;;;;5054322;28;20048;-84
2022/04/20 02:59:45;;;;;;;6.47;5.20;;;5.50;99.90;;;;;;5073082;28;20102;-84
2022/04/20 03:02:10;;;;;;;6.00;4.97;;;5.50;99.90;;;;;;5072306;28;21769;-84
2022/04/20 03:04:36;;;;;;;6.55;5.22;;;5.50;99.90;;;;;;5070978;28;20036;-84
2022/04/20 03:07:02;;;;;;;6.20;5.30;;;5.50;99.90;;;;;;5055218;28;20056;-84
2022/04/20 03:09:27;;;;;;;7.57;5.30;;;5.50;99.90;;;;;;5072453;28;20064;-84
2022/04/20 03:11:53;;;;;;;5.78;5.07;;;5.50;99.90;;;;;;5070338;28;20048;-84
2022/04/20 03:14:18;;;;;;;6.97;4.82;;;5.40;99.90;;;;;;5069606;28;20040;-83
2022/04/20 03:16:44;;;;;;;6.65;5.45;;;5.40;99.90;;;;;;5052498;28;20042;-84
2022/04/20 03:19:09;;;;;;;6.10;4.78;;;5.30;99.90;;;;;;5066604;28;20045;-84
2022/04/20 03:21:35;;;;;;;7.53;4.88;;;5.30;99.90;;;;;;5070506;28;20037;-84
2022/04/20 03:24:01;;;;;;;6.95;4.80;;;5.20;99.90;;;;;;5072008;28;20089;-84
2022/04/20 03:26:26;;;;;;;6.20;5.38;;;5.20;99.90;;;;;;5060122;28;20051;-84
2022/04/20 03:28:52;;;;;;;5.90;5.30;;;5.10;99.90;;;;;;5064263;28;20040;-84
2022/04/20 03:31:17;;;;;;;7.82;5.50;;;5.10;99.90;;;;;;5068464;28;20029;-84
2022/04/20 03:33:43;;;;;;;5.85;5.22;;;5.10;99.90;;;;;;5071998;28;20040;-84
2022/04/20 03:36:09;;;;;;;6.75;4.88;;;5.00;99.90;;;;;;5070208;28;20106;-84
2022/04/20 03:38:35;;;;;;;5.50;4.70;;;5.10;99.90;;;;;;5071740;28;20493;-84
2022/04/20 03:41:03;;;;;;;7.03;4.82;;;5.10;99.90;;;;;;5067911;28;20090;-83
2022/04/20 03:43:28;;;;;;;5.60;4.60;;;5.10;99.90;;;;;;5070708;28;20052;-83
2022/04/20 03:45:54;;;;;;;8.82;4.97;;;5.10;99.90;;;;;;5043802;28;20482;-84
2022/04/20 03:48:19;;;;;;;6.55;4.90;;;5.10;99.90;;;;;;5056541;28;20045;-83
2022/04/20 03:50:45;;;;;;;7.75;4.43;;;5.00;99.90;;;;;;5070804;28;20040;-83
2022/04/20 03:53:10;;;;;;;7.05;4.82;;;5.00;99.90;;;;;;5072131;28;20045;-83
2022/04/20 03:55:36;;;;;;;5.65;5.13;;;5.00;99.90;;;;;;5066313;28;20048;-84
2022/04/20 03:58:02;;;;;;;5.65;4.72;;;5.00;99.90;;;;;;5060941;28;20474;-83
2022/04/20 04:00:29;;;;;;;6.15;4.65;;;5.00;99.90;;;;;;5058780;28;20032;-83
2022/04/20 04:02:54;;;;;;;5.50;4.95;;;5.00;99.90;;;;;;5065353;28;20059;-84
2022/04/20 04:05:20;;;;;;;6.90;4.80;;;4.90;99.90;;;;;;5082235;28;20040;-84
2022/04/20 04:07:46;;;;;;;5.97;5.13;;;4.90;99.90;;;;;;5070841;28;20036;-84
2022/04/20 04:10:12;;;;;;;6.28;5.07;;;4.90;99.90;;;;;;5053982;28;20048;-84
2022/04/20 04:12:37;;;;;;;6.78;5.10;;;4.90;99.90;;;;;;5070548;28;20475;-84
2022/04/20 04:15:04;;;;;;;6.38;4.85;;;4.90;99.90;;;;;;5065089;28;20051;-84
2022/04/20 04:17:29;;;;;;;6.45;4.70;;;4.90;99.90;;;;;;5069198;28;20417;-84
2022/04/20 04:19:55;;;;;;;6.68;5.07;;;4.90;99.90;;;;;;5070816;28;20036;-84
2022/04/20 04:22:21;;;;;;;6.13;4.65;;;4.90;99.90;;;;;;5060063;28;20066;-84
2022/04/20 04:24:47;;;;;;;6.20;5.20;;;4.90;99.90;;;;;;5071015;28;20045;-84
2022/04/20 04:27:12;;;;;;;5.75;4.80;;;4.80;99.90;;;;;;5069671;28;20367;-84
2022/04/20 04:29:38;;;;;;;6.75;5.18;;;4.90;99.90;;;;;;5071433;28;20037;-84
2022/04/20 04:32:04;;;;;;;5.88;5.05;;;4.90;99.90;;;;;;5049052;28;20115;-84
2022/04/20 04:34:30;;;;;;;8.73;5.47;;;4.80;99.90;;;;;;5063769;28;20033;-85
2022/04/20 04:36:56;;;;;;;7.35;4.88;;;4.80;99.90;;;;;;5047162;28;20109;-84
2022/04/20 04:39:22;;;;;;;8.05;5.53;;;4.80;99.90;;;;;;5070278;28;20068;-84
2022/04/20 04:41:51;;;;;;;7.47;5.43;;;4.80;99.90;;;;;;5061153;28;20070;-84
2022/04/20 04:44:18;;;;;;;7.60;5.47;;;4.80;99.90;;;;;;5066959;28;20061;-84
2022/04/20 04:49:28;;;;;;;8.68;6.05;;;4.80;99.90;;;;;;5061001;28;20045;-84
2022/04/20 04:51:55;;;;;;;9.25;6.20;;;4.80;99.90;;;;;;5066348;28;20545;-84
2022/04/20 04:54:21;;;;;;;8.75;5.70;;;4.80;99.90;;;;;;5056224;28;20406;-85
2022/04/20 04:56:47;;;;;;;7.65;6.25;;;4.80;99.90;;;;;;5062990;28;20045;-84
2022/04/20 04:59:13;;;;;;;7.28;6.03;;;4.90;99.90;;;;;;5061686;28;20047;-84
2022/04/20 05:01:38;;;;;;;7.97;5.78;;;4.90;99.90;;;;;;5070003;28;20058;-84
2022/04/20 05:04:05;;;;;;;6.95;5.68;;;5.00;99.90;;;;;;5052270;28;20114;-84
2022/04/20 05:06:30;;;;;;;7.57;5.40;;;5.00;99.90;;;;;;5049345;28;20037;-84
2022/04/20 05:08:56;;;;;;;7.43;5.63;;;5.10;99.90;;;;;;5069533;28;20040;-84
2022/04/20 05:11:21;;;;;;;6.57;5.72;;;5.20;99.90;;;;;;5065079;28;20099;-84
2022/04/20 05:13:47;;;;;;;5.95;5.22;;;5.20;99.90;;;;;;5056227;28;20045;-84
2022/04/20 05:16:13;;;;;;;6.03;5.43;;;5.30;99.90;;;;;;5047939;28;20127;-84
2022/04/20 05:18:38;;;;;;;7.40;5.47;;;5.30;99.90;;;;;;5068404;28;20090;-84
2022/04/20 05:21:04;;;;;;;6.63;5.55;;;5.40;99.90;;;;;;5063456;28;20040;-84
2022/04/20 05:23:29;;;;;;;6.60;5.95;;;5.40;99.90;;;;;;5071321;28;20047;-84
2022/04/20 05:25:55;;;;;;;6.22;5.63;;;5.50;99.90;;;;;;5071401;28;20045;-84
2022/04/20 05:28:20;;;;;;;7.72;6.25;;;5.60;99.90;;;;;;5064548;28;20033;-83
2022/04/20 05:30:46;;;;;;;6.22;5.60;;;5.60;99.90;;;;;;5069182;28;20456;-83
2022/04/20 05:33:12;;;;;;;6.80;6.10;;;5.70;99.90;;;;;;5071689;28;20119;-83
2022/04/20 05:35:38;;;;;;;7.18;5.45;;;5.80;99.90;;;;;;5072976;28;20522;-82
2022/04/20 05:43:32;;;;;;;9.80;5.47;;;6.00;99.90;;;;;;5067026;28;20072;-83
2022/04/20 05:45:57;;;;;;;6.90;5.22;;;6.80;99.90;;;;;;5074460;28;20068;-83
2022/04/20 05:48:23;;;;;;;8.82;5.05;;;8.20;99.90;;;;;;5072242;28;20063;-83
2022/04/20 05:50:48;;;;;;;7.60;5.05;;;9.50;99.90;;;;;;5062380;28;20090;-83
2022/04/20 05:53:14;;;;;;;8.43;5.05;;;10.70;99.90;;;;;;5057644;28;20036;-84
2022/04/20 05:55:39;;;;;;;6.03;4.85;;;11.80;99.90;;;;;;5057552;28;20040;-84
2022/04/20 05:58:06;;;;;;;5.22;4.65;;;12.70;99.90;;;;;;5071304;28;20048;-84
2022/04/20 06:00:31;;;;;;;6.75;5.25;;;13.40;99.10;;;;;;5047540;28;20090;-83
2022/04/20 06:02:58;;;;;;;5.35;4.60;;;14.00;97.20;;;;;;5073180;28;20454;-84
2022/04/20 06:05:23;;;;;;;5.20;4.25;;;14.10;94.40;;;;;;5073127;28;20111;-84
2022/04/20 06:07:50;;;;;;;5.57;4.38;;;;;;;;;;5052599;28;20127;-82
2022/04/20 06:10:16;;;;;;;5.53;4.68;;;15.80;93.90;;;;;;5073994;28;20071;-84
2022/04/20 06:12:42;;;;;;;5.90;4.32;;;16.10;83.10;;;;;;5057415;28;20068;-84
2022/04/20 06:15:08;;;;;;;5.45;4.38;;;16.30;89.50;;;;;;5072915;28;20044;-85
2022/04/20 06:17:34;;;;;;;5.28;4.47;;;16.30;83.30;;;;;;5072028;28;20067;-84
2022/04/20 06:20:01;;;;;;;6.30;4.35;;;16.10;73.20;;;;;;5072798;28;20040;-83
2022/04/20 06:22:27;;;;;;;5.03;4.40;;;16.10;79.10;;;;;;5073579;28;20052;-85
2022/04/20 06:24:52;;;;;;;7.57;4.40;;;17.10;80.00;;;;;;5062144;28;20039;-84
2022/04/20 06:27:18;;;;;;;6.97;4.53;;;17.20;78.00;;;;;;5066583;28;20472;-83
2022/04/20 06:29:44;;;;;;;11.63;4.47;;;17.80;76.20;;;;;;5072044;28;20036;-83
2022/04/20 06:32:09;;;;;;;6.30;4.43;;;17.60;75.80;;;;;;5071122;28;20033;-83
2022/04/20 06:34:35;;;;;;;7.65;4.60;;;18.00;73.80;;;;;;5051749;28;20040;-84
2022/04/20 06:37:01;;;;;;;6.10;4.57;;;18.00;73.00;;;;;;5071706;28;20406;-84
2022/04/20 06:39:28;;;;;;;8.38;4.38;;;18.70;72.40;;;;;;5059665;28;20044;-84
2022/04/20 06:41:53;;;;;;;4.45;3.72;;;18.50;69.50;;;;;;5072199;28;20033;-83
2022/04/20 06:44:19;;;;;;;8.35;4.13;;;18.80;69.10;;;;;;5067761;28;20068;-85
2022/04/20 06:46:45;;;;;;;4.47;3.90;;;19.10;64.00;;;;;;5065907;28;20076;-84
2022/04/20 06:49:11;;;;;;;5.70;3.83;;;19.20;62.50;;;;;;5069761;28;20091;-84
2022/04/20 06:59:50;;;;;;;4.30;3.88;;;19.70;61.70;;;;;;5064022;28;20044;-85
2022/04/20 07:02:16;;;;;;;4.57;3.97;;;19.30;57.90;;;;;;5063103;28;20032;-84
2022/04/20 07:04:42;;;;;;;4.63;3.53;;;19.30;60.90;;;;;;5069835;28;20382;-85
2022/04/20 07:07:08;;;;;;;5.50;4.40;;;19.40;61.50;;;;;;5045414;28;20052;-85
2022/04/20 07:09:34;;;;;;;7.13;4.30;;;19.60;56.10;;;;;;5047294;28;20035;-85
2022/04/20 07:11:59;;;;;;;4.15;3.72;;;20.10;60.40;;;;;;5067949;28;20037;-84
2022/04/20 07:14:25;;;;;;;5.60;3.90;;;20.00;59.90;;;;;;5071243;28;20072;-85
2022/04/20 07:16:50;;;;;;;6.72;3.88;;;20.50;60.00;;;;;;5069121;28;20048;-84
2022/04/20 07:19:16;;;;;;;5.70;4.07;;;20.50;57.20;;;;;;5068089;28;20582;-84
2022/04/20 07:21:42;;;;;;;5.55;3.95;;;20.60;53.60;;;;;;5068325;28;20052;-85
2022/04/20 07:24:07;;;;;;;5.32;3.95;;;20.40;56.40;;;;;;5054802;28;20049;-85
2022/04/20 07:26:33;;;;;;;6.07;4.10;;;20.10;53.80;;;;;;5068561;28;20068;-83
2022/04/20 07:28:58;;;;;;;5.10;3.83;;;20.30;55.60;;;;;;5067800;28;20044;-84
2022/04/20 07:31:24;;;;;;;4.80;3.80;;;20.30;53.90;;;;;;5060733;28;20048;-84
2022/04/20 07:33:49;;;;;;;3.97;3.40;;;21.00;54.50;;;;;;5069627;28;20485;-84
2022/04/20 07:36:15;;;;;;;4.30;3.67;;;21.40;56.10;;;;;;5071548;28;20546;-85
2022/04/20 07:38:40;;;;;;;4.82;3.88;;;21.50;53.40;;;;;;5053098;28;20074;-84
2022/04/20 07:41:06;;;;;;;7.97;3.38;;;21.40;52.20;;;;;;5063698;28;20056;-84
2022/04/20 07:43:32;;;;;;;4.40;3.63;;;20.70;49.30;;;;;;5056998;28;20037;-85
2022/04/20 07:45:58;;;;;;;5.75;3.72;;;20.40;49.60;;;;;;5045858;28;20418;-85
2022/04/20 07:48:23;;;;;;;4.60;3.50;;;19.70;51.00;;;;;;5054443;28;20028;-84
2022/04/20 07:50:49;;;;;;;5.25;3.33;;;19.50;53.20;;;;;;5071405;28;20074;-84
2022/04/20 07:53:15;;;;;;;4.70;3.33;;;18.10;54.40;;;;;;5071721;28;20048;-84
2022/04/20 07:55:46;;;;;;;4.32;2.95;;;17.40;57.50;;;;;;5055322;28;20044;-84
2022/04/20 07:58:12;;;;;;;4.77;3.17;;;16.70;58.30;;;;;;5053454;28;20130;-84
2022/04/20 08:00:38;;;;;;;3.35;2.95;;;16.20;62.40;;;;;;5071788;28;20052;-84
2022/04/20 08:03:08;;;;;;;3.15;2.78;;;15.80;62.50;;;;;;5071354;28;20111;-84
2022/04/20 08:05:33;;;;;;;3.65;3.17;;;15.40;59.50;;;;;;5071503;28;20480;-84
2022/04/20 08:07:59;;;;;;;2.97;2.72;;;14.90;62.20;;;;;;5054670;28;20029;-84
2022/04/20 08:10:25;;;;;;;3.47;2.85;;;14.70;64.60;;;;;;5072077;28;20037;-84
2022/04/20 08:12:50;;;;;;;4.45;2.25;;;14.60;66.00;;;;;;5071886;28;20044;-84
2022/04/20 08:15:16;;;;;;;2.90;2.60;;;14.40;63.40;;;;;;5050041;28;20048;-84
2022/04/20 08:17:41;;;;;;;3.45;2.45;;;14.40;67.10;;;;;;5055640;28;20119;-84
2022/04/20 08:20:09;;;;;;;2.65;2.40;;;14.40;65.70;;;;;;5069696;28;20116;-85
2022/04/20 08:22:42;;;;;;;2.35;2.00;;;14.20;61.80;;;;;;5054491;28;20036;-86
2022/04/20 08:25:12;;;;;;;2.30;2.10;;;14.10;65.60;;;;;;5054607;28;20043;-85
2022/04/20 08:27:38;;;;;;;3.33;2.70;;;14.30;65.40;;;;;;5071509;28;20051;-85
2022/04/20 08:30:06;;;;;;;3.45;2.30;;;14.30;66.90;;;;;;5067092;28;20470;-85
2022/04/20 08:32:31;;;;;;;2.97;2.25;;;14.30;63.50;;;;;;5058671;28;20033;-85
2022/04/20 08:34:57;;;;;;;5.15;2.53;;;14.10;59.30;;;;;;5059904;28;20547;-85
2022/04/20 08:37:23;;;;;;;3.38;2.28;;;14.10;64.20;;;;;;5053633;28;20071;-85
2022/04/20 08:39:49;;;;;;;4.05;1.92;;;14.10;61.80;;;;;;5062002;28;20049;-84
2022/04/20 08:42:19;;;;;;;2.22;1.80;;;14.00;65.60;;;;;;5069430;28;20082;-84
2022/04/20 08:44:49;;;;;;;2.88;1.60;;;14.10;63.60;;;;;;5069868;28;20123;-85
2022/04/20 08:47:21;;;;;;;2.20;1.80;;;14.20;62.10;;;;;;5065973;28;20362;-85
2022/04/20 08:49:50;;;;;;;3.13;1.98;;;14.30;63.00;;;;;;5054552;28;20036;-86
2022/04/20 08:55:02;;;;;;;2.63;1.90;;;14.10;59.00;;;;;;5074508;28;20094;-84
2022/04/20 08:57:29;;;;;;;1.75;1.60;;;14.20;63.60;;;;;;5075492;28;20037;-89
2022/04/20 08:59:58;;;;;;;2.88;1.75;;;14.20;59.30;;;;;;5055858;28;20073;-89
2022/04/20 09:02:28;;;;;;;3.45;2.00;;;14.20;61.60;;;;;;5055770;28;20068;-89
2022/04/20 09:04:57;;;;;;;1.50;1.38;;;14.40;67.30;;;;;;5074555;28;20036;-89
2022/04/20 09:07:24;;;;;;;3.72;1.92;;;14.50;62.30;;;;;;5075425;28;20041;-88
2022/04/20 09:09:50;;;;;;;2.42;1.83;;;14.50;57.60;;;;;;5059042;28;20132;-89
2022/04/20 09:12:22;;;;;;;3.20;2.00;;;14.50;57.60;;;;;;5075524;28;20119;-89
2022/04/20 09:14:50;;;;;;;2.92;1.30;;;14.60;62.50;;;;;;5058515;28;20043;-88
2022/04/20 09:17:19;;;;;;;2.08;1.50;;;14.70;64.70;;;;;;5076663;28;20385;-89
2022/04/20 09:19:46;;;;;;;2.05;1.60;;;14.80;60.30;;;;;;5073359;28;20409;-88
2022/04/20 09:22:26;;;;;;;1.67;1.40;;;15.00;65.10;;;;;;5054899;28;20394;-88
2022/04/20 09:24:59;;;;;;;2.90;1.42;;;15.00;65.00;;;;;;5055996;28;20417;-88
2022/04/20 09:27:28;;;;;;;2.33;1.30;;;14.90;53.40;;;;;;5038338;28;20124;-88
2022/04/20 09:29:58;;;;;;;3.35;1.60;;;14.80;54.70;;;;;;5054558;28;20412;-88
2022/04/20 09:32:34;;;;;;;1.70;1.48;;;15.10;62.10;;;;;;5074791;28;20047;-88
2022/04/20 09:35:03;;;;;;;2.05;1.38;;;15.20;60.30;;;;;;5074860;28;20037;-89
2022/04/20 09:37:30;;;;;;;1.52;1.40;;;15.20;58.60;;;;;;5074466;28;20056;-88
2022/04/20 09:39:56;;;;;;;5.20;2.08;;;15.20;55.40;;;;;;5074638;28;20090;-88
2022/04/20 09:42:22;;;;;;;2.38;1.63;;;15.20;54.30;;;;;;5074382;28;20037;-88
2022/04/20 09:45:00;;;;;;;1.55;1.27;;;15.30;55.30;;;;;;5058230;28;20093;-89
2022/04/20 09:50:13;;;;;;;2.60;1.42;;;15.30;60.00;;;;;;5074347;28;20052;-87
2022/04/20 09:52:44;;;;;;;2.38;1.58;;;15.20;58.00;;;;;;5074347;28;20048;-88
2022/04/20 09:55:12;;;;;;;2.30;1.52;;;15.20;53.80;;;;;;5055783;28;20117;-89
2022/04/20 09:57:38;;;;;;;8.95;1.80;;;15.20;56.70;;;;;;5052871;28;20045;-89
2022/04/20 10:00:12;;;;;;;2.38;1.55;;;15.30;64.10;;;;;;5037529;28;20532;-88
2022/04/20 10:02:48;;;;;;;1.77;1.55;;;15.40;59.50;;;;;;5054235;28;20044;-88
2022/04/20 10:05:16;;;;;;;2.90;1.60;;;15.60;59.40;;;;;;5055065;28;20048;-87
2022/04/20 10:07:41;;;;;;;1.95;1.40;;;15.60;55.70;;;;;;5057591;28;20037;-87
2022/04/20 10:10:08;;;;;;;2.63;1.30;;;15.80;62.40;;;;;;5067299;28;20044;-88
2022/04/20 10:12:37;;;;;;;2.28;1.42;;;15.80;59.70;;;;;;5057028;28;20041;-82
2022/04/20 10:17:51;;;;;;;2.80;1.83;;;15.70;55.70;;;;;;5073092;28;20048;-83
2022/04/20 10:20:18;;;;;;;2.15;1.52;;;15.80;59.50;;;;;;5072763;28;20545;-83
2022/04/20 10:22:45;;;;;;;3.80;1.50;;;16.00;61.40;;;;;;5052019;28;20128;-84
2022/04/20 10:25:12;;;;;;;3.15;1.40;;;16.20;56.20;;;;;;5065885;28;20082;-84
2022/04/20 10:27:50;;;;;;;2.75;1.42;;;16.20;58.80;;;;;;5064006;28;20445;-84
2022/04/20 10:30:23;;;;;;;2.22;1.80;;;16.30;58.00;;;;;;5073141;28;20382;-84
2022/04/20 10:32:59;;;;;;;1.85;1.58;;;16.30;60.00;;;;;;5072880;28;20040;-84
2022/04/20 10:35:25;;;;;;;2.63;1.60;;;16.30;54.10;;;;;;5069362;28;20370;-85
2022/04/20 10:38:11;;;;;;;1.95;1.60;;;16.50;62.50;;;;;;5068053;28;20140;-84
2022/04/20 10:40:57;;;;;;;1.40;1.30;;;16.60;55.40;;;;;;5072770;28;20625;-84
2022/04/20 10:43:24;;;;;;;3.60;1.60;;;16.80;62.30;;;;;;5060237;28;20049;-83
2022/04/20 10:46:06;;;;;;;1.90;1.40;;;16.60;51.30;;;;;;5051191;28;20037;-80
2022/04/20 10:48:52;;;;;;;2.22;1.35;;;16.50;53.80;;;;;;5054888;28;20115;-82
2022/04/20 10:51:22;;;;;;;2.28;1.52;;;16.00;47.70;;;;;;5068968;28;20095;-82
2022/04/20 10:53:48;;;;;;;2.03;1.50;;;16.20;53.60;;;;;;5049729;28;20546;-80
2022/04/20 10:56:17;;;;;;;1.50;1.40;;;16.40;55.60;;;;;;5062727;28;20086;-80
2022/04/20 10:59:04;;;;;;;1.83;1.25;;;16.50;57.50;;;;;;5067711;28;20115;-80
2022/04/20 11:01:30;;;;;;;2.08;1.10;;;16.30;47.20;;;;;;5068764;28;20500;-81
2022/04/20 11:03:59;;;;;;;1.55;1.45;;;16.30;55.00;;;;;;5069015;28;20040;-81
2022/04/20 11:06:28;;;;;;;1.20;1.10;;;16.50;54.80;;;;;;5052437;28;20039;-80
2022/04/20 11:08:59;;;;;;;2.78;1.27;;;16.20;45.60;;;;;;5048795;28;20436;-81
2022/04/20 11:20:05;;;;;;;1.73;1.23;;;16.20;52.50;;;;;;5060079;28;20091;-81
2022/04/20 11:22:31;;;;;;;1.73;1.13;;;16.30;51.50;;;;;;5052706;28;20059;-81
2022/04/20 11:25:05;;;;;;;1.40;1.30;;;16.20;45.40;;;;;;5065225;28;20045;-80
2022/04/20 11:27:34;;;;;;;1.33;1.20;;;16.10;47.90;;;;;;5061262;28;20385;-80
2022/04/20 11:30:00;;;;;;;1.98;1.02;;;16.40;53.80;;;;;;5063840;28;20079;-80
2022/04/20 11:32:27;;;;;;;1.38;1.20;;;16.60;51.90;;;;;;5051458;28;20547;-81
2022/04/20 11:35:04;;;;;;;2.45;1.20;;;16.70;56.30;;;;;;5066621;28;20059;-80
2022/04/20 11:37:30;;;;;;;2.28;1.17;;;16.90;50.60;;;;;;5070597;28;20124;-79
2022/04/20 11:39:56;;;;;;;1.35;1.25;;;16.90;53.80;;;;;;5065924;28;20166;-80
2022/04/20 11:42:21;;;;;;;1.10;1.00;;;16.90;52.10;;;;;;5052898;28;20049;-80
2022/04/20 11:44:47;;;;;;;2.03;1.20;;;17.10;55.90;;;;;;5049398;28;20053;-81
2022/04/20 11:47:17;;;;;;;3.38;1.38;;;17.20;57.80;;;;;;5068360;28;20032;-80
2022/04/20 11:49:46;;;;;;;1.52;1.33;;;17.00;45.60;;;;;;5044747;28;20170;-81
2022/04/20 11:52:14;;;;;;;2.55;1.10;;;17.10;49.80;;;;;;5065117;28;20076;-81
2022/04/20 11:54:44;;;;;;;1.70;1.30;;;17.00;49.90;;;;;;5068363;28;20528;-80
2022/04/20 11:57:10;;;;;;;1.30;1.15;;;17.00;44.80;;;;;;5065506;28;20032;-80
2022/04/20 11:59:50;;;;;;;1.20;1.10;;;16.90;47.70;;;;;;5070765;28;20067;-80
2022/04/20 12:02:17;;;;;;;1.73;0.90;;;17.00;45.60;;;;;;5052110;28;20041;-80
2022/04/20 12:04:44;;;;;;;1.45;1.10;;;17.20;47.30;;;;;;5064802;28;20040;-79
2022/04/20 12:07:10;;;;;;;1.55;1.10;;;17.30;53.00;;;;;;5062011;28;20451;-79
2022/04/20 12:09:39;;;;;;;2.53;1.38;;;17.50;56.40;;;;;;5067734;28;20543;-79
2022/04/20 12:12:06;;;;;;;3.17;1.30;;;17.60;48.50;;;;;;5056296;28;20044;-80
2022/04/20 12:14:33;;;;;;;1.60;0.90;;;17.10;44.80;;;;;;5060301;28;20048;-79
2022/04/20 12:17:09;;;;;;;1.38;1.08;;;17.30;51.90;;;;;;5062176;28;20041;-79
2022/04/20 12:19:36;;;;;;;2.15;1.30;;;17.10;49.50;;;;;;5061996;28;20085;-79
2022/04/20 12:22:10;;;;;;;1.38;1.10;;;17.30;49.80;;;;;;5069629;28;20036;-79
2022/04/20 12:24:37;;;;;;;1.58;1.00;;;17.30;47.00;;;;;;5063388;28;20033;-80
2022/04/20 12:27:04;;;;;;;1.25;1.00;;;17.40;48.10;;;;;;5069159;28;20083;-80
2022/04/20 12:29:33;;;;;;;2.88;1.10;;;17.60;52.60;;;;;;5073056;28;20070;-80
2022/04/20 12:32:00;;;;;;;1.42;0.98;;;17.60;50.60;;;;;;5065157;28;20824;-80
2022/04/20 12:34:30;;;;;;;2.65;1.45;;;17.50;50.80;;;;;;5073330;28;20051;-80
2022/04/20 12:37:13;;;;;;;1.45;1.35;;;17.70;50.70;;;;;;5042772;28;20061;-80
2022/04/20 12:39:45;;;;;;;1.67;1.20;;;17.70;51.50;;;;;;5063587;28;20041;-80
2022/04/20 12:42:17;;;;;;;3.00;1.17;;;17.80;55.70;;;;;;5081033;28;20130;-80
2022/04/20 12:44:53;;;;;;;2.35;1.23;;;17.60;45.60;;;;;;5053734;28;20461;-80
2022/04/20 12:47:20;;;;;;;1.92;1.05;;;17.60;49.00;;;;;;5072362;28;20055;-80
2022/04/20 12:50:04;;;;;;;2.35;1.00;;;17.80;53.80;;;;;;5056962;28;20681;-80
2022/04/20 12:52:31;;;;;;;1.13;1.02;;;17.80;52.10;;;;;;5047304;22;20053;-75
2022/04/20 12:55:00;;;;;;;0.80;0.80;;;18.00;55.60;;;;;;5052654;28;20091;-76
2022/04/20 13:03:06;;;;;;;1.05;0.85;;;18.00;50.90;;;;;;5042355;28;20052;-77
2022/04/20 13:05:33;;;;;;;3.53;1.10;;;18.00;47.00;;;;;;5050802;28;20048;-76
2022/04/20 13:07:59;;;;;;;0.82;0.82;;;18.00;46.20;;;;;;5033655;28;20040;-76
2022/04/20 13:10:26;;;;;;;1.10;1.00;;;18.20;56.20;;;;;;5048490;28;20614;-76
2022/04/20 13:12:55;;;;;;;3.22;1.48;;;18.20;55.00;;;;;;5049831;28;20041;-76
2022/04/20 13:15:22;;;;;;;2.60;1.10;;;18.20;49.40;;;;;;5049430;28;20041;-76
2022/04/20 13:17:48;;;;;;;2.05;1.13;;;18.20;52.70;;;;;;5050000;28;20044;-76
2022/04/20 13:20:16;;;;;;;1.95;1.58;;;18.20;53.10;;;;;;5052849;28;20049;-76
2022/04/20 13:22:41;;;;;;;1.42;1.30;;;18.30;54.90;;;;;;5051622;28;20044;-76
2022/04/20 13:27:54;;;;;;;1.95;1.67;;;18.50;55.70;;;;;;5043507;28;20052;-76
2022/04/20 13:30:21;;;;;;;2.38;1.90;;;18.40;54.30;;;;;;5033638;28;20427;-76
2022/04/20 13:32:47;;;;;;;1.80;1.67;;;18.30;53.10;;;;;;5039320;28;20060;-76
2022/04/20 13:35:13;;;;;;;2.75;1.40;;;18.20;52.60;;;;;;5043815;28;20043;-76
2022/04/20 13:37:38;;;;;;;2.15;1.40;;;18.20;51.70;;;;;;5051148;28;20033;-76